Time;durP1;ratioP1;P1;durP2;ratioP2;P2;SDS_P1;SDS_P2;PMS_P1;PMS_P2;Temp;Humidity;BMP_temperature;BMP_pressure;BME280_temperature;BME280_humidity;BME280_pressure;Samples;Min_cycle;Max_cycle;Signal;HPM_P1;HPM_P2
2023/01/03 00:01:10;;;;;;;15.20;6.60;;;2.50;99.90;;;;;;5010572;28;20050;-76
2023/01/03 00:03:36;;;;;;;18.40;6.90;;;2.50;99.90;;;;;;5009692;28;20130;-76
2023/01/03 00:06:01;;;;;;;12.23;6.73;;;2.50;99.90;;;;;;5011146;28;20046;-76
2023/01/03 00:08:28;;;;;;;14.80;7.07;;;2.50;99.90;;;;;;4994563;28;20542;-76
2023/01/03 00:10:53;;;;;;;15.03;7.20;;;2.50;99.90;;;;;;5009179;28;20100;-76
2023/01/03 00:13:22;;;;;;;13.37;6.60;;;2.70;99.90;;;;;;5007795;28;20057;-75
2023/01/03 00:15:48;;;;;;;15.00;6.00;;;2.60;99.90;;;;;;5011034;28;20062;-76
2023/01/03 00:18:13;;;;;;;17.43;7.13;;;2.80;99.90;;;;;;4994859;28;20095;-75
2023/01/03 00:20:39;;;;;;;10.60;5.80;;;2.60;99.90;;;;;;5010523;28;20381;-76
2023/01/03 00:23:05;;;;;;;11.10;6.33;;;2.60;99.90;;;;;;5008868;28;20488;-76
2023/01/03 00:25:30;;;;;;;19.77;5.93;;;2.60;99.90;;;;;;4989124;28;20046;-76
2023/01/03 00:27:56;;;;;;;17.07;5.80;;;2.70;99.90;;;;;;4974576;28;20080;-76
2023/01/03 00:30:22;;;;;;;19.77;5.50;;;2.70;99.90;;;;;;4990054;28;20090;-76
2023/01/03 00:32:47;;;;;;;18.50;5.70;;;2.70;99.90;;;;;;4991999;28;20117;-76
2023/01/03 00:35:13;;;;;;;12.07;4.80;;;2.70;99.90;;;;;;4990617;28;20053;-76
2023/01/03 00:37:39;;;;;;;12.60;5.03;;;2.80;99.90;;;;;;4974002;28;20090;-76
2023/01/03 00:40:05;;;;;;;12.83;4.53;;;2.70;99.90;;;;;;4989444;28;20046;-76
2023/01/03 00:43:27;;;;;;;16.27;5.07;;;2.80;99.90;;;;;;4986164;28;20057;-76
2023/01/03 00:45:16;;;;;;;16.83;5.07;;;2.80;99.90;;;;;;4986654;28;20046;-76
2023/01/03 00:47:42;;;;;;;16.37;4.60;;;2.80;99.90;;;;;;4972342;28;20049;-75
2023/01/03 00:50:07;;;;;;;11.13;4.57;;;2.90;99.90;;;;;;4990401;28;20050;-76
2023/01/03 00:52:33;;;;;;;9.03;3.80;;;2.90;99.90;;;;;;4987313;28;20054;-76
2023/01/03 00:54:59;;;;;;;9.60;3.93;;;3.10;99.90;;;;;;4990831;28;20052;-76
2023/01/03 00:57:24;;;;;;;14.00;4.40;;;3.30;99.90;;;;;;4972953;28;20133;-75
2023/01/03 00:59:50;;;;;;;7.97;3.70;;;3.10;99.90;;;;;;5005695;28;20096;-76
2023/01/03 01:02:15;;;;;;;11.73;3.77;;;3.30;99.90;;;;;;4989464;28;20054;-75
2023/01/03 01:04:41;;;;;;;8.93;4.03;;;3.30;99.90;;;;;;4990433;28;20046;-76
2023/01/03 01:07:07;;;;;;;15.47;3.60;;;3.40;99.90;;;;;;4969144;28;20129;-75
2023/01/03 01:09:35;;;;;;;10.40;4.03;;;3.40;99.90;;;;;;4974152;28;20046;-76
2023/01/03 01:12:02;;;;;;;15.97;4.70;;;3.40;99.90;;;;;;4989889;28;20129;-76
2023/01/03 01:14:29;;;;;;;10.80;3.30;;;3.50;99.90;;;;;;5009480;28;20396;-76
2023/01/03 01:17:02;;;;;;;8.53;3.50;;;3.50;99.90;;;;;;4994170;28;20045;-76
2023/01/03 01:19:35;;;;;;;9.10;3.13;;;3.60;99.90;;;;;;5008088;28;20439;-76
2023/01/03 01:22:01;;;;;;;11.73;3.60;;;3.50;99.90;;;;;;5005593;28;20043;-76
2023/01/03 01:24:27;;;;;;;7.77;3.40;;;4.10;99.90;;;;;;4989477;28;20047;-76
2023/01/03 01:26:53;;;;;;;8.93;3.40;;;3.50;99.90;;;;;;4974560;28;20134;-76
2023/01/03 01:29:19;;;;;;;13.23;3.83;;;3.50;99.90;;;;;;4987372;28;20047;-76
2023/01/03 01:31:45;;;;;;;14.63;3.87;;;3.60;99.90;;;;;;4989990;28;20042;-76
2023/01/03 01:34:12;;;;;;;11.97;4.17;;;3.50;99.90;;;;;;4989417;28;20082;-76
2023/01/03 01:36:40;;;;;;;7.47;3.43;;;3.50;99.90;;;;;;4976690;28;20085;-76
2023/01/03 01:39:26;;;;;;;12.90;3.60;;;3.60;99.90;;;;;;4988260;28;20133;-76
2023/01/03 01:45:11;;;;;;;11.50;4.10;;;3.40;99.90;;;;;;4987995;28;20519;-76
2023/01/03 01:47:48;;;;;;;10.40;3.60;;;3.40;99.90;;;;;;4976315;28;20040;-76
2023/01/03 01:50:22;;;;;;;10.83;3.90;;;3.50;99.90;;;;;;5009962;28;20111;-76
2023/01/03 01:53:15;;;;;;;13.20;4.10;;;3.30;99.90;;;;;;5007294;28;20042;-76
2023/01/03 01:55:43;;;;;;;9.90;4.13;;;3.40;99.90;;;;;;4991724;28;20555;-76
2023/01/03 01:58:11;;;;;;;11.50;4.07;;;3.40;99.90;;;;;;4992871;28;20598;-75
2023/01/03 02:00:38;;;;;;;9.17;3.80;;;3.50;99.90;;;;;;5023898;28;20492;-76
2023/01/03 02:03:04;;;;;;;10.70;3.87;;;3.40;99.90;;;;;;5009090;28;20037;-76
2023/01/03 02:05:32;;;;;;;13.17;4.13;;;3.40;99.90;;;;;;5012613;28;20046;-76
2023/01/03 02:07:59;;;;;;;8.13;3.70;;;3.50;99.90;;;;;;4996495;28;20045;-75
2023/01/03 02:10:46;;;;;;;8.20;3.53;;;3.50;99.90;;;;;;5011990;28;20073;-76
2023/01/03 02:13:36;;;;;;;12.27;3.77;;;3.50;99.90;;;;;;5012085;28;20104;-76
2023/01/03 02:16:38;;;;;;;7.63;3.60;;;3.60;99.90;;;;;;5013101;28;20508;-76
2023/01/03 02:19:22;;;;;;;6.07;3.63;;;3.60;99.90;;;;;;5010219;28;20590;-75
2023/01/03 02:21:47;;;;;;;11.10;3.43;;;3.60;99.90;;;;;;5012898;28;20054;-76
2023/01/03 02:24:22;;;;;;;11.43;3.90;;;3.70;99.90;;;;;;5002970;28;20058;-76
2023/01/03 02:26:54;;;;;;;13.43;3.77;;;3.50;99.90;;;;;;4997778;28;20148;-76
2023/01/03 02:29:45;;;;;;;8.43;3.57;;;3.60;99.90;;;;;;5011816;28;20054;-76
2023/01/03 02:32:40;;;;;;;9.57;2.80;;;3.60;99.90;;;;;;4999101;28;20125;-75
2023/01/03 02:35:18;;;;;;;9.73;3.47;;;3.60;99.90;;;;;;5012987;28;20053;-76
2023/01/03 02:38:08;;;;;;;13.73;4.03;;;3.50;99.90;;;;;;4997043;28;20496;-76
2023/01/03 02:40:42;;;;;;;10.57;3.70;;;3.50;99.90;;;;;;5012914;28;20053;-75
2023/01/03 02:43:28;;;;;;;8.90;3.87;;;3.40;99.90;;;;;;5011504;28;20057;-76
2023/01/03 02:46:27;;;;;;;16.00;4.53;;;3.30;99.90;;;;;;4994742;28;20057;-76
2023/01/03 02:49:07;;;;;;;16.50;3.70;;;3.20;99.90;;;;;;5008399;28;20092;-75
2023/01/03 02:51:45;;;;;;;15.57;4.20;;;3.20;99.90;;;;;;5012832;28;20038;-76
2023/01/03 02:54:16;;;;;;;10.40;4.50;;;3.10;99.90;;;;;;5010150;28;20046;-76
2023/01/03 02:56:46;;;;;;;11.52;3.25;;;3.00;99.90;;;;;;4998621;28;20542;-75
2023/01/03 02:59:18;;;;;;;10.60;4.10;;;2.90;99.90;;;;;;5010740;28;20408;-76
2023/01/03 03:01:44;;;;;;;10.47;4.20;;;3.00;99.90;;;;;;4994538;28;20107;-76
2023/01/03 03:04:12;;;;;;;12.40;4.17;;;2.80;99.90;;;;;;5011383;28;20054;-76
2023/01/03 03:06:44;;;;;;;10.17;4.17;;;2.70;99.90;;;;;;4997529;28;20050;-76
2023/01/03 03:09:10;;;;;;;7.33;4.23;;;2.60;99.90;;;;;;4991371;28;20042;-76
2023/01/03 03:14:29;;;;;;;15.80;4.30;;;2.50;99.90;;;;;;5010473;28;20069;-76
2023/01/03 03:17:01;;;;;;;10.53;4.70;;;2.50;99.90;;;;;;4996655;28;20467;-76
2023/01/03 03:25:17;;;;;;;13.20;4.23;;;2.30;99.90;;;;;;5002680;28;20724;-76
2023/01/03 03:30:39;;;;;;;7.83;4.60;;;2.20;99.90;;;;;;5011769;28;20057;-76
2023/01/03 03:33:06;;;;;;;11.30;4.77;;;2.20;99.90;;;;;;4998976;28;20455;-76
2023/01/03 03:35:56;;;;;;;13.63;4.60;;;2.20;99.90;;;;;;5011920;28;20050;-76
2023/01/03 03:38:33;;;;;;;12.47;4.77;;;2.00;99.90;;;;;;4993509;28;20068;-76
2023/01/03 03:47:27;;;;;;;14.30;4.93;;;1.90;99.90;;;;;;4995672;28;20060;-76
2023/01/03 03:49:56;;;;;;;8.75;4.40;;;1.80;99.90;;;;;;4992982;28;20484;-76
2023/01/03 03:52:26;;;;;;;10.33;4.50;;;1.80;99.90;;;;;;5010007;28;20381;-76
2023/01/03 03:55:08;;;;;;;11.60;3.33;;;1.70;99.90;;;;;;5010487;28;20054;-76
2023/01/03 03:57:40;;;;;;;14.40;4.20;;;1.70;99.90;;;;;;4993826;28;20411;-76
2023/01/03 04:00:15;;;;;;;14.80;5.00;;;1.70;99.90;;;;;;5011888;28;20112;-76
2023/01/03 04:02:45;;;;;;;12.50;5.17;;;1.60;99.90;;;;;;5009806;28;20057;-76
2023/01/03 04:05:14;;;;;;;13.90;5.13;;;1.60;99.90;;;;;;5011172;28;20050;-76
2023/01/03 04:07:40;;;;;;;12.87;5.03;;;1.60;99.90;;;;;;4968712;28;20124;-76
2023/01/03 04:10:08;;;;;;;16.17;4.73;;;1.60;99.90;;;;;;4999141;28;20085;-76
2023/01/03 04:12:33;;;;;;;10.80;4.63;;;1.60;99.90;;;;;;5009599;28;20064;-76
2023/01/03 04:14:59;;;;;;;17.03;5.73;;;1.70;99.90;;;;;;5010684;28;20476;-76
2023/01/03 04:17:25;;;;;;;14.53;5.50;;;1.60;99.90;;;;;;4994116;28;20042;-76
2023/01/03 04:19:51;;;;;;;11.93;4.80;;;1.60;99.90;;;;;;5009486;28;20053;-76
2023/01/03 04:22:17;;;;;;;11.30;5.10;;;1.60;99.90;;;;;;5009789;28;20041;-76
2023/01/03 04:24:42;;;;;;;13.93;5.67;;;1.60;99.90;;;;;;5001231;28;20045;-76
2023/01/03 04:27:08;;;;;;;14.83;5.30;;;1.60;99.90;;;;;;4993036;28;20474;-75
2023/01/03 04:29:34;;;;;;;16.43;6.03;;;1.70;99.90;;;;;;4992428;28;20097;-76
2023/01/03 04:31:59;;;;;;;19.50;6.17;;;1.70;99.90;;;;;;5005916;28;20039;-76
2023/01/03 04:34:25;;;;;;;13.27;5.63;;;1.60;99.90;;;;;;4989552;28;20082;-76
2023/01/03 04:36:50;;;;;;;11.63;5.50;;;1.70;99.90;;;;;;4975820;28;20267;-76
2023/01/03 04:39:16;;;;;;;15.73;5.67;;;1.60;99.90;;;;;;4990344;28;20050;-76
2023/01/03 04:41:42;;;;;;;17.70;6.00;;;1.70;99.90;;;;;;4990858;28;20042;-76
2023/01/03 04:44:08;;;;;;;14.57;5.67;;;1.70;99.90;;;;;;4989422;28;20050;-76
2023/01/03 04:46:37;;;;;;;14.57;5.43;;;1.70;99.90;;;;;;4977473;28;20061;-76
2023/01/03 04:49:04;;;;;;;22.07;6.47;;;1.70;99.90;;;;;;4969981;28;20502;-76
2023/01/03 04:51:30;;;;;;;16.43;5.73;;;1.70;99.90;;;;;;4990749;28;20054;-76
2023/01/03 04:53:56;;;;;;;11.57;5.93;;;1.70;99.90;;;;;;4989517;28;20467;-76
2023/01/03 04:56:27;;;;;;;15.73;6.33;;;1.70;99.90;;;;;;4978614;28;20046;-75
2023/01/03 04:58:53;;;;;;;17.33;6.38;;;2.00;99.90;;;;;;4986346;28;20042;-76
2023/01/03 05:01:19;;;;;;;15.20;6.47;;;1.70;99.90;;;;;;4982944;28;20555;-76
2023/01/03 05:03:45;;;;;;;16.63;6.83;;;1.70;99.90;;;;;;4985192;28;20496;-76
2023/01/03 05:06:11;;;;;;;16.37;8.20;;;1.70;99.90;;;;;;4960741;28;20061;-75
2023/01/03 05:08:37;;;;;;;13.87;7.53;;;1.80;99.90;;;;;;4971926;28;20054;-76
2023/01/03 05:11:04;;;;;;;16.33;7.53;;;1.80;99.90;;;;;;4984179;28;20054;-76
2023/01/03 05:13:30;;;;;;;14.57;7.87;;;1.80;99.90;;;;;;4984535;28;20054;-76
2023/01/03 05:16:01;;;;;;;20.90;9.17;;;1.90;99.90;;;;;;4988951;28;20552;-76
2023/01/03 05:18:27;;;;;;;14.88;6.40;;;1.90;99.90;;;;;;4973297;28;20046;-76
2023/01/03 05:26:22;;;;;;;21.47;10.27;;;2.00;99.90;;;;;;4978617;28;20058;-76
2023/01/03 05:28:51;;;;;;;20.03;10.27;;;1.90;99.90;;;;;;4985694;28;20054;-76
2023/01/03 05:31:17;;;;;;;22.90;11.33;;;2.00;99.90;;;;;;4990449;28;20069;-76
2023/01/03 05:33:42;;;;;;;27.70;11.17;;;2.00;99.90;;;;;;4981159;28;20541;-76
2023/01/03 05:36:09;;;;;;;25.53;11.97;;;2.00;99.90;;;;;;4984623;28;20046;-75
2023/01/03 05:38:36;;;;;;;26.97;12.63;;;2.10;99.90;;;;;;4998227;28;20046;-76
2023/01/03 05:41:02;;;;;;;30.33;14.07;;;2.10;99.90;;;;;;4994003;28;20404;-76
2023/01/03 05:43:27;;;;;;;27.67;14.47;;;2.10;99.90;;;;;;4991199;28;20088;-76
2023/01/03 05:45:53;;;;;;;30.23;14.57;;;2.20;99.90;;;;;;4994325;28;20125;-76
2023/01/03 05:48:20;;;;;;;25.17;14.70;;;2.10;99.90;;;;;;4977771;28;20117;-75
2023/01/03 05:50:47;;;;;;;29.60;14.83;;;2.40;99.90;;;;;;4993704;28;20050;-76
2023/01/03 05:53:14;;;;;;;31.47;16.27;;;2.20;99.90;;;;;;4992806;28;20046;-75
2023/01/03 05:55:39;;;;;;;29.93;15.67;;;2.20;99.90;;;;;;4991942;28;20611;-76
2023/01/03 05:58:06;;;;;;;35.57;22.67;;;2.20;99.90;;;;;;4977203;28;20085;-76
2023/01/03 06:00:33;;;;;;;36.50;21.70;;;2.30;99.90;;;;;;5025567;28;20058;-75
2023/01/03 06:02:58;;;;;;;35.17;21.50;;;2.30;99.90;;;;;;5024582;28;20456;-76
2023/01/03 06:05:24;;;;;;;34.07;19.57;;;2.30;99.90;;;;;;4993660;28;20039;-76
2023/01/03 06:07:50;;;;;;;35.23;18.27;;;2.30;99.90;;;;;;4975669;28;20051;-76
2023/01/03 06:10:16;;;;;;;31.03;16.90;;;2.30;99.90;;;;;;5024862;28;20104;-76
2023/01/03 06:12:41;;;;;;;29.87;17.87;;;2.30;99.90;;;;;;4992406;28;20519;-75
2023/01/03 06:15:07;;;;;;;36.97;18.50;;;2.40;99.90;;;;;;4993045;28;20066;-76
2023/01/03 06:20:17;;;;;;;38.93;19.20;;;2.40;99.90;;;;;;4992341;28;20497;-76
2023/01/03 06:22:43;;;;;;;36.23;19.83;;;2.40;99.90;;;;;;4992855;28;20117;-75
2023/01/03 06:25:09;;;;;;;41.27;20.07;;;2.40;99.90;;;;;;4992669;28;20049;-76
2023/01/03 06:27:34;;;;;;;39.90;20.53;;;2.30;99.90;;;;;;4976605;28;20042;-75
2023/01/03 06:30:00;;;;;;;36.97;20.50;;;2.30;99.90;;;;;;4992194;28;20050;-75
2023/01/03 06:32:26;;;;;;;39.20;20.23;;;2.20;99.90;;;;;;5006858;28;20340;-76
2023/01/03 06:34:51;;;;;;;36.73;20.20;;;2.20;99.90;;;;;;4992610;28;20046;-76
2023/01/03 06:37:17;;;;;;;40.20;20.47;;;2.60;99.90;;;;;;4976989;28;20053;-75
2023/01/03 06:39:44;;;;;;;42.90;21.57;;;2.30;99.90;;;;;;5023847;28;20046;-76
2023/01/03 06:53:21;;;;;;;45.37;23.23;;;2.00;99.90;;;;;;4949773;28;20116;-76
2023/01/03 06:55:47;;;;;;;45.13;22.20;;;1.90;99.90;;;;;;5004805;28;20082;-76
2023/01/03 06:58:13;;;;;;;45.47;23.13;;;1.80;99.90;;;;;;4956937;28;20082;-76
2023/01/03 07:00:41;;;;;;;48.17;24.20;;;1.80;99.90;;;;;;4973327;28;20485;-76
2023/01/03 07:03:07;;;;;;;43.53;24.13;;;2.00;99.90;;;;;;4972068;28;20129;-76
2023/01/03 07:05:33;;;;;;;53.47;24.57;;;1.70;99.90;;;;;;4973105;28;20445;-76
2023/01/03 07:07:58;;;;;;;50.17;24.13;;;1.60;99.90;;;;;;4967826;28;20449;-76
2023/01/03 07:10:24;;;;;;;60.73;29.20;;;1.60;99.90;;;;;;4992146;28;20404;-76
2023/01/03 07:15:34;;;;;;;61.70;27.53;;;1.50;99.90;;;;;;4990714;28;20489;-76
2023/01/03 07:18:00;;;;;;;59.80;27.77;;;1.50;99.90;;;;;;4975218;28;20096;-76
2023/01/03 07:20:26;;;;;;;58.67;30.27;;;1.80;99.90;;;;;;4991893;28;20100;-76
2023/01/03 07:22:52;;;;;;;59.53;31.43;;;1.50;99.90;;;;;;4991431;28;20050;-76
2023/01/03 07:25:18;;;;;;;62.93;30.27;;;1.50;99.90;;;;;;4991809;28;20043;-76
2023/01/03 07:27:52;;;;;;;59.70;29.97;;;1.60;99.90;;;;;;4975893;28;20042;-76
2023/01/03 07:30:18;;;;;;;64.73;31.17;;;1.60;99.90;;;;;;4991888;28;20542;-76
2023/01/03 07:32:43;;;;;;;61.67;30.30;;;1.50;99.90;;;;;;5023115;28;20121;-76
2023/01/03 07:35:09;;;;;;;64.63;31.37;;;1.50;99.90;;;;;;4990326;28;20084;-76
2023/01/03 07:37:35;;;;;;;59.33;32.20;;;1.40;99.90;;;;;;4975518;28;20046;-76
2023/01/03 07:40:00;;;;;;;64.33;31.90;;;1.40;99.90;;;;;;4990874;28;20604;-76
2023/01/03 07:45:10;;;;;;;67.03;31.43;;;1.50;99.90;;;;;;4991439;28;20107;-76
2023/01/03 07:47:36;;;;;;;61.50;31.93;;;1.60;99.90;;;;;;5007577;28;20038;-76
2023/01/03 07:50:01;;;;;;;68.47;32.23;;;1.70;99.90;;;;;;4990817;28;20050;-76
2023/01/03 07:52:27;;;;;;;59.53;32.83;;;1.40;99.90;;;;;;4989779;28;20046;-76
2023/01/03 07:54:53;;;;;;;63.83;31.90;;;1.40;99.90;;;;;;4990968;28;20050;-76
2023/01/03 07:57:18;;;;;;;65.63;33.87;;;1.40;99.90;;;;;;4975647;28;20058;-76
2023/01/03 07:59:44;;;;;;;71.77;33.07;;;1.40;99.90;;;;;;4991157;28;20145;-76
2023/01/03 08:02:10;;;;;;;44.67;20.23;;;1.40;99.90;;;;;;4989016;28;20073;-76
2023/01/03 08:04:35;;;;;;;45.90;21.27;;;1.50;99.90;;;;;;4990087;28;20050;-76
2023/01/03 08:07:01;;;;;;;43.70;20.87;;;1.30;99.90;;;;;;4974283;28;20046;-76
2023/01/03 08:14:55;;;;;;;46.03;22.07;;;1.60;99.90;;;;;;4987476;28;20054;-76
2023/01/03 08:17:21;;;;;;;43.87;23.07;;;1.40;99.90;;;;;;4973179;28;20049;-76
2023/01/03 08:19:46;;;;;;;73.43;33.87;;;1.50;99.90;;;;;;4987373;28;20137;-76
2023/01/03 08:22:12;;;;;;;53.83;24.50;;;1.50;99.90;;;;;;4986652;28;20038;-75
2023/01/03 08:24:37;;;;;;;45.57;23.03;;;1.60;99.90;;;;;;4988743;28;20496;-76
2023/01/03 08:27:03;;;;;;;57.70;32.43;;;1.60;99.90;;;;;;4972404;28;20507;-74
2023/01/03 08:29:29;;;;;;;48.87;28.43;;;1.70;99.90;;;;;;4989633;28;20096;-76
2023/01/03 08:31:56;;;;;;;46.77;26.77;;;1.70;99.90;;;;;;4988515;28;20045;-76
2023/01/03 08:34:23;;;;;;;47.03;27.23;;;1.80;99.90;;;;;;5006257;28;20655;-76
2023/01/03 08:36:54;;;;;;;41.70;23.70;;;1.90;99.90;;;;;;4991613;28;20413;-76
2023/01/03 08:39:24;;;;;;;40.03;23.00;;;1.90;99.90;;;;;;5009319;28;20599;-76
2023/01/03 08:41:56;;;;;;;38.47;22.70;;;2.20;99.90;;;;;;5008404;28;20060;-76
2023/01/03 08:44:22;;;;;;;39.33;22.90;;;2.10;99.90;;;;;;5007319;28;20053;-76
2023/01/03 08:46:50;;;;;;;35.37;22.20;;;2.00;99.90;;;;;;4994365;28;20139;-76
2023/01/03 08:49:17;;;;;;;37.93;22.10;;;2.00;99.90;;;;;;5007359;28;20121;-76
2023/01/03 08:51:42;;;;;;;42.60;23.13;;;2.20;99.90;;;;;;5008649;28;20050;-76
2023/01/03 08:54:08;;;;;;;40.93;22.07;;;2.40;99.90;;;;;;5009462;28;20053;-76
2023/01/03 08:56:34;;;;;;;32.10;20.90;;;2.60;99.90;;;;;;4996483;28;20057;-76
2023/01/03 08:59:00;;;;;;;38.03;22.27;;;2.70;99.90;;;;;;5006187;28;20054;-76
2023/01/03 09:01:26;;;;;;;33.60;22.37;;;2.60;99.90;;;;;;5008425;28;20403;-76
2023/01/03 09:03:51;;;;;;;34.40;21.27;;;2.50;99.90;;;;;;5009161;28;20563;-76
2023/01/03 09:06:18;;;;;;;36.03;22.47;;;2.60;99.90;;;;;;4999005;28;20050;-75
2023/01/03 09:08:44;;;;;;;39.83;22.47;;;2.80;99.90;;;;;;5014575;28;20045;-76
2023/01/03 09:11:10;;;;;;;39.57;25.03;;;2.20;99.90;;;;;;5008502;28;20053;-76
2023/01/03 09:13:37;;;;;;;38.20;24.03;;;2.20;99.90;;;;;;5007449;28;20734;-76
2023/01/03 09:16:05;;;;;;;38.37;23.90;;;2.20;99.90;;;;;;5008032;28;20104;-76
2023/01/03 09:18:31;;;;;;;44.30;27.20;;;2.10;99.90;;;;;;4993448;28;20172;-76
2023/01/03 09:20:57;;;;;;;39.97;26.17;;;2.10;99.90;;;;;;5009330;28;20062;-76
2023/01/03 09:23:22;;;;;;;44.33;26.83;;;2.10;99.90;;;;;;5007954;28;20137;-76
2023/01/03 09:25:48;;;;;;;48.77;30.90;;;2.10;99.90;;;;;;5009298;28;20081;-76
2023/01/03 09:28:13;;;;;;;48.50;30.17;;;2.40;99.90;;;;;;4996302;28;20046;-76
2023/01/03 09:30:39;;;;;;;49.03;30.67;;;2.10;99.90;;;;;;5006676;28;20042;-76
2023/01/03 09:33:05;;;;;;;54.67;33.77;;;2.00;99.90;;;;;;5008710;28;20184;-76
2023/01/03 09:35:31;;;;;;;64.80;36.97;;;1.80;99.90;;;;;;5009689;28;20038;-76
2023/01/03 09:37:57;;;;;;;64.30;34.40;;;1.80;99.90;;;;;;5010209;28;20054;-76
2023/01/03 09:40:24;;;;;;;89.90;39.83;;;1.70;99.90;;;;;;5008547;28;20177;-76
2023/01/03 09:45:35;;;;;;;127.57;42.10;;;1.20;99.90;;;;;;5009065;28;20046;-76
2023/01/03 09:48:02;;;;;;;184.77;51.57;;;1.20;99.90;;;;;;4993549;28;20061;-75
2023/01/03 09:50:34;;;;;;;175.63;44.77;;;1.20;99.90;;;;;;5008498;28;20078;-76
2023/01/03 10:04:35;;;;;;;159.23;44.87;;;1.20;99.90;;;;;;4989259;28;20547;-75
2023/01/03 10:07:13;;;;;;;182.27;52.03;;;1.40;99.90;;;;;;4976914;28;20197;-75
2023/01/03 10:09:49;;;;;;;193.70;48.07;;;1.30;99.90;;;;;;5007201;28;20466;-75
2023/01/03 10:12:40;;;;;;;219.37;52.67;;;1.40;99.90;;;;;;5008495;28;20042;-75
2023/01/03 10:15:52;;;;;;;276.67;56.88;;;1.40;99.90;;;;;;5009227;28;20092;-75
2023/01/03 10:18:35;;;;;;;247.48;48.33;;;1.50;99.90;;;;;;4964526;28;20491;-75
2023/01/03 10:21:21;;;;;;;232.87;47.87;;;1.50;99.90;;;;;;5008968;28;20258;-76
2023/01/03 10:23:48;;;;;;;333.03;58.00;;;1.50;99.90;;;;;;5008805;28;20057;-75
2023/01/03 10:26:14;;;;;;;327.50;62.47;;;1.60;99.90;;;;;;5002105;28;20499;-76
2023/01/03 10:28:44;;;;;;;248.37;48.17;;;1.70;99.90;;;;;;5004522;28;20052;-75
2023/01/03 10:31:47;;;;;;;229.83;47.60;;;1.70;99.90;;;;;;5012781;28;20048;-76
2023/01/03 10:34:12;;;;;;;311.33;61.77;;;1.70;99.90;;;;;;4980801;28;20391;-75
2023/01/03 10:36:38;;;;;;;319.60;65.10;;;1.80;99.90;;;;;;4996533;28;20547;-75
2023/01/03 10:39:08;;;;;;;350.47;65.23;;;1.90;99.90;;;;;;5011367;28;20060;-75
2023/01/03 10:41:47;;;;;;;349.13;71.60;;;2.00;99.90;;;;;;5012118;28;20197;-76
2023/01/03 10:44:27;;;;;;;366.07;72.47;;;2.00;99.90;;;;;;5011539;28;20399;-76
2023/01/03 10:46:56;;;;;;;384.77;68.87;;;2.10;99.90;;;;;;4995721;28;20061;-76
2023/01/03 10:49:25;;;;;;;398.60;76.67;;;2.20;99.90;;;;;;5011510;28;20694;-75
2023/01/03 10:52:08;;;;;;;458.30;85.07;;;2.20;99.90;;;;;;5012227;28;20403;-76
2023/01/03 10:54:40;;;;;;;383.63;71.83;;;2.30;99.90;;;;;;5010297;28;20049;-75
2023/01/03 10:57:06;;;;;;;414.60;78.47;;;2.30;99.90;;;;;;4994719;28;20058;-75
2023/01/03 10:59:32;;;;;;;324.80;64.53;;;2.40;99.90;;;;;;5012513;28;20119;-76
2023/01/03 11:02:07;;;;;;;367.87;70.30;;;2.30;99.90;;;;;;5011748;28;20088;-75
2023/01/03 11:04:34;;;;;;;477.97;86.93;;;2.40;99.90;;;;;;5011822;28;20046;-75
2023/01/03 11:07:12;;;;;;;437.40;83.07;;;2.50;99.90;;;;;;4995102;28;20123;-76
2023/01/03 11:09:49;;;;;;;399.43;76.33;;;2.60;99.90;;;;;;5006439;28;20046;-76
2023/01/03 11:12:35;;;;;;;376.10;75.13;;;2.70;99.90;;;;;;4988573;28;20061;-75
2023/01/03 11:15:14;;;;;;;451.83;83.00;;;3.00;99.90;;;;;;4987475;28;20094;-76
2023/01/03 11:17:59;;;;;;;372.07;78.23;;;2.80;99.90;;;;;;4956515;28;20053;-76
2023/01/03 11:21:06;;;;;;;289.00;69.10;;;2.90;99.90;;;;;;4973247;28;20046;-76
2023/01/03 11:23:55;;;;;;;364.60;80.50;;;2.90;99.90;;;;;;5000004;28;20518;-76
2023/01/03 11:26:23;;;;;;;327.87;78.07;;;3.10;99.90;;;;;;4999275;28;20129;-75
2023/01/03 11:29:06;;;;;;;336.60;84.00;;;3.10;99.90;;;;;;5008229;28;20493;-76
2023/01/03 11:31:55;;;;;;;305.53;87.10;;;3.30;99.90;;;;;;5010764;28;20049;-75
2023/01/03 11:34:46;;;;;;;307.80;80.90;;;3.40;99.90;;;;;;4993518;28;20085;-75
2023/01/03 11:37:38;;;;;;;309.53;90.07;;;3.50;99.90;;;;;;4976116;28;20061;-76
2023/01/03 11:40:19;;;;;;;262.37;79.50;;;3.70;99.90;;;;;;5005001;28;20335;-76
2023/01/03 11:42:51;;;;;;;265.50;88.33;;;3.70;99.90;;;;;;5010396;28;20401;-75
2023/01/03 11:45:19;;;;;;;241.57;81.83;;;3.80;99.90;;;;;;5011665;28;20054;-75
2023/01/03 11:48:18;;;;;;;230.10;89.83;;;3.70;99.90;;;;;;4994364;28;20081;-75
2023/01/03 11:51:07;;;;;;;221.80;74.87;;;3.80;99.90;;;;;;5011185;28;20050;-76
2023/01/03 11:53:54;;;;;;;231.00;76.53;;;3.70;99.90;;;;;;5010618;28;20050;-76
2023/01/03 11:56:42;;;;;;;201.83;74.07;;;3.80;99.90;;;;;;5000090;28;20051;-76
2023/01/03 11:59:32;;;;;;;208.23;74.20;;;3.90;99.90;;;;;;5009038;28;20520;-76
2023/01/03 12:02:22;;;;;;;208.47;74.70;;;3.90;99.90;;;;;;5011110;28;20566;-76
2023/01/03 12:05:16;;;;;;;202.17;83.87;;;4.10;99.90;;;;;;5010372;28;20133;-76
2023/01/03 12:08:00;;;;;;;201.40;78.97;;;4.10;99.90;;;;;;5006771;28;20100;-75
2023/01/03 12:10:48;;;;;;;203.93;82.57;;;4.30;99.90;;;;;;5019858;28;20058;-75
2023/01/03 12:13:26;;;;;;;207.43;102.43;;;4.40;99.90;;;;;;5009580;28;20080;-75
2023/01/03 12:16:07;;;;;;;202.33;82.77;;;4.50;99.90;;;;;;5010803;28;20108;-75
2023/01/03 12:18:59;;;;;;;204.02;83.28;;;4.60;99.90;;;;;;5000239;28;20053;-76
2023/01/03 12:21:36;;;;;;;204.50;82.53;;;4.60;99.90;;;;;;5010389;28;20053;-76
2023/01/03 12:24:12;;;;;;;189.40;85.83;;;4.70;99.90;;;;;;4997637;28;20050;-76
2023/01/03 12:26:41;;;;;;;191.43;81.67;;;4.80;99.90;;;;;;4976725;28;20092;-76
2023/01/03 12:29:42;;;;;;;179.13;80.80;;;4.80;99.90;;;;;;4988551;28;20049;-75
2023/01/03 12:32:17;;;;;;;182.82;76.68;;;4.80;99.90;;;;;;4970149;28;20054;-75
2023/01/03 12:35:12;;;;;;;183.80;78.00;;;4.90;99.90;;;;;;4990802;28;20105;-76
2023/01/03 12:37:39;;;;;;;180.23;76.03;;;5.00;99.90;;;;;;4994858;28;20050;-76
2023/01/03 12:40:20;;;;;;;182.40;78.60;;;5.20;99.90;;;;;;5009389;28;20126;-76
2023/01/03 12:43:10;;;;;;;;;;;5.10;99.90;;;;;;5010239;28;20123;-75
2023/01/03 12:45:46;;;;;;;174.97;75.27;;;5.20;99.90;;;;;;4991097;28;19922;-75
2023/01/03 12:48:29;;;;;;;166.87;73.50;;;5.20;99.90;;;;;;4973825;28;20129;-76
2023/01/03 12:50:55;;;;;;;167.90;73.47;;;5.30;99.90;;;;;;4990566;28;20077;-76
2023/01/03 12:53:37;;;;;;;165.40;76.73;;;5.20;99.90;;;;;;4988794;28;20050;-76
2023/01/03 12:56:21;;;;;;;152.67;76.57;;;5.30;99.90;;;;;;4990685;28;20481;-76
2023/01/03 12:59:24;;;;;;;153.57;77.13;;;5.40;99.90;;;;;;4986460;28;20061;-76
2023/01/03 13:01:59;;;;;;;148.30;66.20;;;5.40;99.90;;;;;;4990204;28;20460;-75
2023/01/03 13:04:33;;;;;;;143.20;68.00;;;5.50;99.90;;;;;;4989515;28;20574;-76
2023/01/03 13:07:19;;;;;;;144.10;69.70;;;5.50;99.90;;;;;;4983282;28;20557;-76
2023/01/03 13:09:56;;;;;;;130.43;64.50;;;5.60;99.90;;;;;;4974703;28;20050;-76
2023/01/03 13:12:30;;;;;;;125.37;61.53;;;5.50;99.90;;;;;;4979419;28;20042;-76
2023/01/03 13:15:04;;;;;;;123.73;58.87;;;5.60;99.90;;;;;;4969805;28;20064;-76
2023/01/03 13:17:40;;;;;;;103.17;55.50;;;5.70;99.90;;;;;;4970585;28;20050;-75
2023/01/03 13:20:28;;;;;;;103.50;53.00;;;5.70;99.90;;;;;;4972767;28;20110;-77
2023/01/03 13:22:58;;;;;;;102.80;55.57;;;5.70;99.90;;;;;;4970679;28;20062;-76
2023/01/03 13:25:37;;;;;;;98.90;52.13;;;5.70;99.90;;;;;;4998400;28;20051;-76
2023/01/03 13:28:28;;;;;;;107.40;61.97;;;5.80;99.90;;;;;;4963757;28;20050;-76
2023/01/03 13:31:21;;;;;;;96.80;49.15;;;5.90;99.90;;;;;;4986772;28;20062;-76
2023/01/03 13:34:08;;;;;;;88.13;47.53;;;5.90;99.90;;;;;;4987956;28;20073;-75
2023/01/03 13:37:05;;;;;;;75.60;46.10;;;5.90;99.90;;;;;;4958286;28;20058;-76
2023/01/03 13:39:51;;;;;;;76.83;45.57;;;6.00;99.90;;;;;;4990146;28;20488;-76
2023/01/03 13:42:29;;;;;;;69.43;42.67;;;6.00;99.90;;;;;;4974902;28;20620;-76
2023/01/03 13:45:16;;;;;;;69.90;40.77;;;6.00;99.90;;;;;;4989143;28;20080;-76
2023/01/03 13:47:51;;;;;;;70.80;42.27;;;6.10;99.90;;;;;;4973700;28;20078;-76
2023/01/03 13:50:29;;;;;;;64.97;38.57;;;6.10;99.90;;;;;;4989370;28;20050;-76
2023/01/03 13:53:11;;;;;;;64.97;40.27;;;6.10;99.90;;;;;;4986932;28;20400;-76
2023/01/03 13:55:39;;;;;;;64.67;37.57;;;6.10;99.90;;;;;;4990470;28;20059;-76
2023/01/03 13:58:23;;;;;;;64.47;42.40;;;6.10;99.90;;;;;;4972993;28;20497;-75
2023/01/03 14:00:54;;;;;;;58.10;37.37;;;6.10;99.90;;;;;;4993462;28;20505;-76
2023/01/03 14:03:38;;;;;;;;;;;6.20;99.90;;;;;;4991719;28;20046;-76
2023/01/03 14:06:37;;;;;;;57.30;33.73;;;6.20;99.90;;;;;;4993977;28;19949;-76
2023/01/03 14:09:44;;;;;;;59.43;36.30;;;6.20;99.90;;;;;;4990408;28;20050;-76
2023/01/03 14:12:31;;;;;;;66.03;35.60;;;6.20;99.90;;;;;;4931493;29;20135;-76